Time;durP1;ratioP1;P1;durP2;ratioP2;P2;SDS_P1;SDS_P2;PMS_P1;PMS_P2;Temp;Humidity;BMP_temperature;BMP_pressure;BME280_temperature;BME280_humidity;BME280_pressure;Samples;Min_cycle;Max_cycle;Signal;HPM_P1;HPM_P2
2022/01/14 00:00:49;;;;;;;31.20;20.37;;;-0.50;99.90;;;;;;5133119;27;20453;-65
2022/01/14 00:03:16;;;;;;;35.83;23.67;;;-0.50;99.90;;;;;;5133372;27;20511;-66
2022/01/14 00:05:43;;;;;;;34.40;22.57;;;-0.60;99.90;;;;;;5133234;27;20452;-66
2022/01/14 00:08:10;;;;;;;32.73;23.40;;;-0.60;99.90;;;;;;5133242;27;20823;-66
2022/01/14 00:10:36;;;;;;;33.23;24.80;;;-0.60;99.90;;;;;;5132174;27;20461;-65
2022/01/14 00:13:14;;;;;;;32.00;23.30;;;-0.60;99.90;;;;;;5133357;27;20477;-65
2022/01/14 00:15:41;;;;;;;43.10;26.83;;;-0.70;99.90;;;;;;5133125;27;20531;-65
2022/01/14 00:18:09;;;;;;;38.40;25.27;;;-0.70;99.90;;;;;;5133039;27;20432;-67
2022/01/14 00:20:36;;;;;;;35.53;24.47;;;-0.60;99.90;;;;;;5132794;27;20484;-65
2022/01/14 00:23:03;;;;;;;42.13;28.50;;;-0.60;99.90;;;;;;5133105;27;20451;-65
2022/01/14 00:33:43;;;;;;;45.97;29.33;;;-0.40;99.90;;;;;;5132769;27;20737;-65
2022/01/14 00:36:10;;;;;;;39.67;27.67;;;-0.40;99.90;;;;;;5132362;27;20433;-65
2022/01/14 00:38:37;;;;;;;44.73;27.80;;;-0.40;99.90;;;;;;5132281;27;20433;-65
2022/01/14 00:41:04;;;;;;;40.47;26.20;;;-0.40;99.90;;;;;;5131643;27;20453;-65
2022/01/14 00:43:31;;;;;;;35.23;26.97;;;-0.30;99.90;;;;;;5132365;27;20436;-64
2022/01/14 00:45:58;;;;;;;41.60;27.87;;;-0.30;99.90;;;;;;5132650;27;20513;-65
2022/01/14 00:48:24;;;;;;;45.50;27.80;;;-0.30;99.90;;;;;;5133085;27;20447;-65
2022/01/14 00:50:53;;;;;;;38.50;26.77;;;-0.30;99.90;;;;;;5132527;27;20525;-65
2022/01/14 00:53:19;;;;;;;42.60;27.83;;;-0.20;99.90;;;;;;5132126;27;21004;-65
2022/01/14 00:55:54;;;;;;;40.13;27.03;;;-0.20;99.90;;;;;;5132005;27;20439;-66
2022/01/14 01:01:05;;;;;;;33.50;26.57;;;-0.20;99.90;;;;;;5131649;27;20436;-66
2022/01/14 01:03:33;;;;;;;36.87;26.93;;;-0.30;99.90;;;;;;5132497;27;20859;-67
2022/01/14 01:06:01;;;;;;;36.13;23.63;;;-0.30;99.90;;;;;;5131715;27;20443;-67
2022/01/14 01:08:29;;;;;;;37.23;25.83;;;-0.40;99.90;;;;;;5132074;27;20489;-66
2022/01/14 01:10:56;;;;;;;29.13;22.30;;;-0.40;99.90;;;;;;5131437;27;20457;-66
2022/01/14 01:13:27;;;;;;;29.57;20.80;;;-0.50;99.90;;;;;;5131956;27;20440;-66
2022/01/14 01:15:54;;;;;;;28.90;19.87;;;-0.50;99.90;;;;;;5131670;27;20938;-66
2022/01/14 01:18:22;;;;;;;29.23;21.20;;;-0.50;99.90;;;;;;5131278;27;20486;-66
2022/01/14 01:20:49;;;;;;;27.87;21.53;;;-0.60;99.90;;;;;;5130487;27;20543;-66
2022/01/14 01:23:18;;;;;;;34.80;21.80;;;-0.60;99.90;;;;;;5131234;27;20447;-66
2022/01/14 01:25:49;;;;;;;37.03;23.80;;;-0.60;99.90;;;;;;5131138;27;20447;-67
2022/01/14 01:28:16;;;;;;;30.30;21.40;;;-0.60;99.90;;;;;;5131116;27;20471;-66
2022/01/14 01:31:04;;;;;;;37.23;24.13;;;-0.60;99.90;;;;;;5130657;27;20495;-67
2022/01/14 01:33:32;;;;;;;30.90;22.30;;;-0.70;99.90;;;;;;5131058;27;20944;-66
2022/01/14 01:35:59;;;;;;;32.23;21.97;;;-0.70;99.90;;;;;;5131377;27;20445;-66
2022/01/14 01:38:28;;;;;;;26.93;18.97;;;-0.70;99.90;;;;;;5131443;27;20933;-67
2022/01/14 01:40:55;;;;;;;28.03;19.27;;;-0.70;99.90;;;;;;5130559;27;20948;-66
2022/01/14 01:43:25;;;;;;;25.40;18.00;;;-0.70;99.90;;;;;;5131015;27;20519;-68
2022/01/14 01:45:54;;;;;;;26.27;19.20;;;-0.60;99.90;;;;;;5131052;27;20441;-66
2022/01/14 01:48:21;;;;;;;24.27;19.00;;;-0.60;99.90;;;;;;5130954;27;20490;-66
2022/01/14 01:50:48;;;;;;;28.53;20.43;;;-0.60;99.90;;;;;;5130626;27;20950;-67
2022/01/14 01:53:15;;;;;;;28.80;19.80;;;-0.60;99.90;;;;;;5131100;27;20452;-66
2022/01/14 01:55:43;;;;;;;27.23;16.73;;;-0.60;99.90;;;;;;5130980;27;20469;-66
2022/01/14 01:58:10;;;;;;;25.70;18.17;;;-0.70;99.90;;;;;;5131173;27;20528;-65
2022/01/14 02:00:37;;;;;;;26.50;18.23;;;-0.80;99.90;;;;;;5130574;27;20537;-65
2022/01/14 02:03:05;;;;;;;28.27;18.90;;;-0.80;99.90;;;;;;5131159;27;20437;-66
2022/01/14 02:05:32;;;;;;;24.93;18.13;;;-0.80;99.90;;;;;;5130819;27;20524;-66
2022/01/14 02:07:59;;;;;;;22.80;17.13;;;-0.90;99.90;;;;;;5130600;27;20488;-67
2022/01/14 02:10:26;;;;;;;26.47;17.40;;;-0.90;99.90;;;;;;5130756;27;20551;-67
2022/01/14 02:12:54;;;;;;;28.73;17.70;;;-0.80;99.90;;;;;;5130644;27;20437;-66
2022/01/14 02:15:43;;;;;;;26.53;18.23;;;-0.80;99.90;;;;;;5130980;27;20448;-67
2022/01/14 02:23:46;;;;;;;24.07;17.87;;;-0.80;99.90;;;;;;5130992;27;20420;-67
2022/01/14 02:26:14;;;;;;;28.67;18.50;;;-0.80;99.90;;;;;;5130890;27;20787;-66
2022/01/14 02:28:42;;;;;;;28.63;19.10;;;-0.80;99.90;;;;;;5130534;27;20435;-66
2022/01/14 02:31:09;;;;;;;25.63;18.70;;;-0.90;99.90;;;;;;5130364;28;20466;-66
2022/01/14 02:33:36;;;;;;;29.87;19.20;;;-0.90;99.90;;;;;;5129746;27;21023;-66
2022/01/14 02:36:05;;;;;;;27.20;18.50;;;-0.90;99.90;;;;;;5130846;28;20531;-66
2022/01/14 02:38:32;;;;;;;25.97;18.43;;;-0.90;99.90;;;;;;5130674;28;20429;-66
2022/01/14 02:40:59;;;;;;;29.60;19.10;;;-1.00;99.90;;;;;;5130029;28;20995;-66
2022/01/14 02:43:26;;;;;;;22.70;17.90;;;-1.00;99.90;;;;;;5130660;28;20439;-67
2022/01/14 02:45:57;;;;;;;28.57;19.30;;;-1.00;99.90;;;;;;5130833;28;20445;-66
2022/01/14 02:48:26;;;;;;;29.40;20.13;;;-1.00;99.90;;;;;;5130585;28;20563;-66
2022/01/14 02:50:56;;;;;;;28.20;19.70;;;-1.00;99.90;;;;;;5130100;28;20480;-66
2022/01/14 02:53:30;;;;;;;30.37;21.00;;;-0.90;99.90;;;;;;5130646;28;20441;-66
2022/01/14 02:55:59;;;;;;;33.90;22.70;;;-0.90;99.90;;;;;;5130414;28;20817;-66
2022/01/14 02:58:29;;;;;;;37.60;24.90;;;-0.80;99.90;;;;;;5130286;28;20947;-66
2022/01/14 03:00:58;;;;;;;38.60;25.47;;;-0.80;99.90;;;;;;5130153;28;20563;-65
2022/01/14 03:03:26;;;;;;;43.37;29.27;;;-0.70;99.90;;;;;;5130241;28;20451;-65
2022/01/14 03:05:53;;;;;;;40.67;28.40;;;-0.60;99.90;;;;;;5130083;28;20432;-65
2022/01/14 03:08:21;;;;;;;39.83;28.10;;;-0.60;99.90;;;;;;5129925;28;20503;-65
2022/01/14 03:10:54;;;;;;;39.60;29.00;;;-0.60;99.90;;;;;;5129524;28;20463;-65
2022/01/14 03:13:21;;;;;;;40.53;28.93;;;-0.50;99.90;;;;;;5130256;28;20440;-66
2022/01/14 03:15:48;;;;;;;41.70;29.40;;;-0.50;99.90;;;;;;5129769;28;20436;-65
2022/01/14 03:18:21;;;;;;;42.63;30.00;;;-0.50;99.90;;;;;;5130010;28;20515;-65
2022/01/14 03:20:50;;;;;;;54.53;31.67;;;-0.50;99.90;;;;;;5129529;28;20469;-65
2022/01/14 03:23:18;;;;;;;43.30;32.80;;;-0.40;99.90;;;;;;5130082;28;20448;-66
2022/01/14 03:25:49;;;;;;;40.50;30.30;;;-0.40;99.90;;;;;;5129843;28;20449;-66
2022/01/14 03:28:22;;;;;;;46.17;30.50;;;-0.40;99.90;;;;;;5130128;28;20570;-65
2022/01/14 03:30:50;;;;;;;39.13;30.60;;;-0.40;99.90;;;;;;5129678;28;20474;-65
2022/01/14 03:33:18;;;;;;;44.60;30.67;;;-0.40;99.90;;;;;;5130201;28;20446;-66
2022/01/14 03:35:45;;;;;;;42.93;29.27;;;-0.40;99.90;;;;;;5129930;28;20879;-65
2022/01/14 03:38:12;;;;;;;38.87;27.73;;;-0.50;99.90;;;;;;5129849;28;20851;-65
2022/01/14 03:40:39;;;;;;;42.87;29.30;;;-0.50;99.90;;;;;;5129840;28;20456;-64
2022/01/14 03:43:06;;;;;;;43.53;29.83;;;-0.50;99.90;;;;;;5130139;28;20420;-65
2022/01/14 03:45:35;;;;;;;40.23;27.93;;;-0.50;99.90;;;;;;5131816;27;20442;-64
2022/01/14 03:48:01;;;;;;;40.20;27.20;;;-0.60;99.90;;;;;;5133385;27;20483;-65
2022/01/14 03:50:28;;;;;;;37.67;27.37;;;-0.60;99.90;;;;;;5132977;27;21004;-66
2022/01/14 03:52:55;;;;;;;37.70;28.13;;;-0.60;99.90;;;;;;5133460;27;20434;-66
2022/01/14 03:55:22;;;;;;;37.03;28.17;;;-0.70;99.90;;;;;;5134480;27;20433;-65
2022/01/14 03:57:49;;;;;;;38.37;28.70;;;-0.70;99.90;;;;;;5133926;27;20526;-66
2022/01/14 04:00:17;;;;;;;38.97;26.97;;;-0.80;99.90;;;;;;5133339;27;20499;-66
2022/01/14 04:02:46;;;;;;;35.03;26.57;;;-0.80;99.90;;;;;;5133514;27;20459;-65
2022/01/14 04:05:14;;;;;;;34.80;23.20;;;-0.90;99.90;;;;;;5133137;27;20453;-65
2022/01/14 04:07:42;;;;;;;32.43;23.50;;;-0.90;99.90;;;;;;5132667;27;20993;-65
2022/01/14 04:10:11;;;;;;;34.47;23.33;;;-0.90;99.90;;;;;;5132707;27;20465;-64
2022/01/14 04:12:52;;;;;;;26.60;21.40;;;-1.00;99.90;;;;;;5133071;27;20476;-64
2022/01/14 04:15:38;;;;;;;27.80;21.63;;;-0.90;99.90;;;;;;5132858;27;20531;-65
2022/01/14 04:18:07;;;;;;;29.67;22.53;;;-0.90;99.90;;;;;;5132891;27;20460;-65
2022/01/14 04:20:35;;;;;;;28.10;20.73;;;-0.90;99.90;;;;;;5132705;27;20463;-66
2022/01/14 04:23:01;;;;;;;27.77;21.60;;;-0.90;99.90;;;;;;5132976;27;20983;-65
2022/01/14 04:25:28;;;;;;;34.70;23.30;;;-1.00;99.90;;;;;;5132764;27;20444;-66
2022/01/14 04:27:55;;;;;;;31.70;22.20;;;-1.00;99.90;;;;;;5132508;27;20860;-66
2022/01/14 04:30:22;;;;;;;38.13;24.00;;;-0.90;99.90;;;;;;5132284;27;20464;-67
2022/01/14 04:32:49;;;;;;;30.00;22.37;;;-0.90;99.90;;;;;;5132603;27;20792;-65
2022/01/14 04:35:18;;;;;;;31.97;23.43;;;-1.00;99.90;;;;;;5132464;27;20540;-66
2022/01/14 04:37:45;;;;;;;37.27;24.27;;;-1.00;99.90;;;;;;5132469;27;20458;-66
2022/01/14 04:40:13;;;;;;;32.77;22.17;;;-1.00;99.90;;;;;;5131988;27;20819;-66
2022/01/14 04:42:42;;;;;;;33.33;24.47;;;-1.00;99.90;;;;;;5132204;27;20493;-66
2022/01/14 04:45:11;;;;;;;35.30;24.40;;;-1.10;99.90;;;;;;5132600;27;20449;-66
2022/01/14 04:47:45;;;;;;;39.60;25.70;;;-1.10;99.90;;;;;;5132362;27;20903;-64
2022/01/14 04:50:13;;;;;;;36.27;24.50;;;-1.10;99.90;;;;;;5131807;27;20464;-65
2022/01/14 04:52:42;;;;;;;36.97;24.37;;;-1.10;99.90;;;;;;5132263;27;20442;-64
2022/01/14 04:55:11;;;;;;;32.80;23.40;;;-1.10;99.90;;;;;;5131705;27;20442;-65
2022/01/14 04:57:38;;;;;;;32.37;22.03;;;-1.10;99.90;;;;;;5132128;27;20428;-65
2022/01/14 05:00:08;;;;;;;28.53;21.30;;;-1.10;99.90;;;;;;5131531;27;20837;-64
2022/01/14 05:02:35;;;;;;;31.07;23.53;;;-1.10;99.90;;;;;;5132179;27;20441;-64
2022/01/14 05:05:02;;;;;;;32.40;22.97;;;-1.20;99.90;;;;;;5131710;27;20953;-65
2022/01/14 05:07:29;;;;;;;31.73;21.10;;;-1.20;99.90;;;;;;5131940;27;20487;-65
2022/01/14 05:10:09;;;;;;;33.63;23.90;;;-1.20;99.90;;;;;;5131624;27;20449;-65
2022/01/14 05:12:38;;;;;;;35.20;23.83;;;-1.20;99.90;;;;;;5131714;27;21038;-65
2022/01/14 05:15:07;;;;;;;30.97;22.63;;;-1.20;99.90;;;;;;5131957;27;20452;-66
2022/01/14 05:17:34;;;;;;;37.73;23.60;;;-1.10;99.90;;;;;;5131919;27;20437;-65
2022/01/14 05:20:02;;;;;;;31.50;24.37;;;-1.10;99.90;;;;;;5131675;27;20459;-65
2022/01/14 05:22:29;;;;;;;37.60;24.60;;;-1.00;99.90;;;;;;5131804;27;20445;-66
2022/01/14 05:24:57;;;;;;;39.97;26.07;;;-1.00;99.90;;;;;;5132377;27;20448;-65
2022/01/14 05:27:24;;;;;;;38.60;26.57;;;-1.00;99.90;;;;;;5133407;27;20523;-65
2022/01/14 05:29:51;;;;;;;35.00;24.13;;;-0.90;99.90;;;;;;5132357;27;20439;-64
2022/01/14 05:32:20;;;;;;;37.77;26.77;;;-1.00;99.90;;;;;;5131433;27;20527;-64
2022/01/14 05:34:47;;;;;;;33.50;23.87;;;-1.00;99.90;;;;;;5131799;27;20858;-66
2022/01/14 05:37:14;;;;;;;34.10;23.43;;;-1.00;99.90;;;;;;5131424;27;20450;-65
2022/01/14 05:39:41;;;;;;;31.73;22.83;;;-1.00;99.90;;;;;;5130865;27;20451;-66
2022/01/14 05:42:11;;;;;;;36.40;27.50;;;-1.10;99.90;;;;;;5131111;27;20724;-66
2022/01/14 05:44:38;;;;;;;31.57;22.83;;;-1.20;99.90;;;;;;5130604;27;20446;-68
2022/01/14 05:47:06;;;;;;;37.00;24.87;;;-1.20;99.90;;;;;;5131099;27;21062;-67
2022/01/14 05:49:33;;;;;;;37.03;25.77;;;-1.30;99.90;;;;;;5131636;27;21072;-64
2022/01/14 05:52:00;;;;;;;34.63;25.53;;;-1.30;99.90;;;;;;5130514;27;20814;-64
2022/01/14 05:54:26;;;;;;;36.00;26.27;;;-1.30;99.90;;;;;;5130496;27;20944;-64
2022/01/14 05:56:53;;;;;;;29.93;23.40;;;-1.30;99.90;;;;;;5109128;28;20434;-64
2022/01/14 05:59:22;;;;;;;31.07;24.50;;;-1.30;99.90;;;;;;5109571;28;20443;-64
2022/01/14 06:01:49;;;;;;;36.90;26.83;;;-1.30;99.90;;;;;;5109624;28;20468;-65
2022/01/14 06:04:16;;;;;;;38.27;28.00;;;-1.20;99.90;;;;;;5109711;28;20990;-66
2022/01/14 06:06:42;;;;;;;40.83;27.97;;;-1.20;99.90;;;;;;5117112;27;20813;-65
2022/01/14 06:09:09;;;;;;;37.87;27.57;;;-1.20;99.90;;;;;;5129068;27;21065;-65
2022/01/14 06:11:36;;;;;;;36.37;26.50;;;-1.20;99.90;;;;;;5130063;27;20460;-65
2022/01/14 06:14:03;;;;;;;40.23;27.87;;;-1.10;99.90;;;;;;5130102;27;20440;-65
2022/01/14 06:16:31;;;;;;;40.50;27.60;;;-1.10;99.90;;;;;;5130348;27;21266;-65
2022/01/14 06:18:58;;;;;;;38.90;27.60;;;-1.00;99.90;;;;;;5130169;27;20432;-65
2022/01/14 06:21:25;;;;;;;34.37;27.27;;;-1.00;99.90;;;;;;5129225;27;20541;-65
2022/01/14 06:23:52;;;;;;;42.33;27.87;;;-1.00;99.90;;;;;;5129959;27;20444;-65
2022/01/14 06:26:18;;;;;;;42.27;27.90;;;-0.90;99.90;;;;;;5129389;27;20447;-65
2022/01/14 06:28:46;;;;;;;45.00;27.97;;;-0.90;99.90;;;;;;5129861;27;20567;-66
2022/01/14 06:31:13;;;;;;;37.47;27.10;;;-0.80;99.90;;;;;;5129024;28;20461;-65
2022/01/14 06:33:42;;;;;;;37.57;27.23;;;-0.90;99.90;;;;;;5129716;28;20971;-66
2022/01/14 06:36:09;;;;;;;35.57;26.17;;;-0.80;99.90;;;;;;5126510;27;20509;-65
2022/01/14 06:38:36;;;;;;;37.47;28.10;;;-0.70;99.90;;;;;;5118536;28;20454;-65
2022/01/14 06:41:03;;;;;;;35.37;26.37;;;-0.70;99.90;;;;;;5120427;28;20460;-65
2022/01/14 06:43:30;;;;;;;40.07;28.00;;;-0.70;99.90;;;;;;5125854;28;20437;-65
2022/01/14 06:45:57;;;;;;;37.93;26.20;;;-0.70;99.90;;;;;;5120447;28;20439;-65
2022/01/14 06:48:24;;;;;;;36.10;26.60;;;-0.70;99.90;;;;;;5128080;28;20505;-66
2022/01/14 06:50:52;;;;;;;36.30;26.90;;;-0.70;99.90;;;;;;5126756;28;20521;-63
2022/01/14 06:53:19;;;;;;;34.37;24.60;;;-0.70;99.90;;;;;;5124183;27;20463;-65
2022/01/14 06:55:46;;;;;;;36.00;25.57;;;-0.70;99.90;;;;;;5122639;28;21046;-65
2022/01/14 06:58:13;;;;;;;47.00;26.40;;;-0.70;99.90;;;;;;5126506;28;20433;-64
2022/01/14 07:00:40;;;;;;;32.77;25.60;;;-0.70;99.90;;;;;;5129435;28;20462;-64
2022/01/14 07:03:06;;;;;;;36.17;25.90;;;-0.60;99.90;;;;;;5129732;27;20512;-65
2022/01/14 07:05:33;;;;;;;37.10;26.33;;;-0.70;99.90;;;;;;5127476;27;20457;-65
2022/01/14 07:08:02;;;;;;;33.20;25.53;;;-0.60;99.90;;;;;;5127065;27;20952;-65
2022/01/14 07:10:29;;;;;;;34.47;24.70;;;-0.70;99.90;;;;;;5119254;28;20468;-65
2022/01/14 07:12:55;;;;;;;38.77;25.57;;;-0.70;99.90;;;;;;5127650;28;20444;-65
2022/01/14 07:15:22;;;;;;;32.43;23.30;;;-0.70;99.90;;;;;;5129758;27;20511;-65
2022/01/14 07:17:49;;;;;;;30.27;21.60;;;-0.80;99.90;;;;;;5126782;28;21018;-65
2022/01/14 07:20:18;;;;;;;36.10;23.43;;;-0.90;99.90;;;;;;5129199;27;20846;-65
2022/01/14 07:22:46;;;;;;;35.07;25.50;;;-0.90;99.90;;;;;;5131220;27;20536;-65
2022/01/14 07:25:15;;;;;;;36.80;27.43;;;-0.90;99.90;;;;;;5123210;27;20447;-64
2022/01/14 07:27:42;;;;;;;38.87;27.13;;;-1.00;99.90;;;;;;5120119;27;20451;-66
2022/01/14 07:30:10;;;;;;;49.27;28.77;;;-1.00;99.90;;;;;;5120134;27;20478;-64
2022/01/14 07:32:37;;;;;;;42.00;26.10;;;-1.00;99.90;;;;;;5121436;27;20829;-64
2022/01/14 07:35:04;;;;;;;38.60;26.07;;;-1.10;99.90;;;;;;5121635;27;20464;-64
2022/01/14 07:37:31;;;;;;;34.63;24.87;;;-1.00;99.90;;;;;;5120151;27;20449;-64
2022/01/14 07:39:58;;;;;;;36.67;26.07;;;-1.00;99.90;;;;;;5121054;27;20778;-61
2022/01/14 07:42:27;;;;;;;32.57;24.50;;;-1.00;99.90;;;;;;5121705;27;20453;-64
2022/01/14 07:44:54;;;;;;;36.00;26.53;;;-1.00;99.90;;;;;;5121956;27;20544;-63
2022/01/14 07:47:21;;;;;;;35.63;27.00;;;-0.90;99.90;;;;;;5119292;27;20445;-65
2022/01/14 07:49:50;;;;;;;38.10;25.50;;;-0.80;99.90;;;;;;5121651;27;20480;-65
2022/01/14 07:52:17;;;;;;;35.60;24.23;;;-0.80;99.90;;;;;;5129670;27;20810;-65
2022/01/14 07:54:44;;;;;;;36.00;24.93;;;-0.80;99.90;;;;;;5131697;27;20529;-66
2022/01/14 07:57:11;;;;;;;36.70;26.60;;;-0.70;99.90;;;;;;5132522;27;20449;-66
2022/01/14 07:59:41;;;;;;;36.20;27.10;;;-0.70;99.90;;;;;;5131611;27;20440;-63
2022/01/14 08:02:08;;;;;;;36.33;27.07;;;-0.60;99.90;;;;;;5132790;27;20986;-63
2022/01/14 08:04:36;;;;;;;34.57;25.30;;;-0.50;99.90;;;;;;5132991;27;20527;-65
2022/01/14 08:07:09;;;;;;;36.37;26.23;;;-0.50;99.90;;;;;;5132256;27;20455;-64
2022/01/14 08:09:37;;;;;;;40.57;26.63;;;-0.30;99.90;;;;;;5132582;27;21102;-64
2022/01/14 08:12:05;;;;;;;37.43;25.70;;;-0.20;99.90;;;;;;5132582;27;20469;-65
2022/01/14 08:14:31;;;;;;;28.80;23.97;;;-0.20;99.90;;;;;;5132659;27;20532;-65
2022/01/14 08:17:00;;;;;;;33.53;25.27;;;-0.10;99.90;;;;;;5132664;27;20444;-64
2022/01/14 08:19:32;;;;;;;33.27;25.07;;;0.00;99.90;;;;;;5132429;27;20447;-65
2022/01/14 08:21:59;;;;;;;33.53;25.03;;;0.00;99.90;;;;;;5132458;27;20851;-64
2022/01/14 08:24:26;;;;;;;31.70;23.90;;;0.10;99.90;;;;;;5132515;27;20460;-65
2022/01/14 08:26:53;;;;;;;32.83;23.43;;;0.30;99.90;;;;;;5132322;27;20449;-65
2022/01/14 08:29:20;;;;;;;28.60;22.47;;;0.30;99.90;;;;;;5132215;27;20580;-63
2022/01/14 08:31:47;;;;;;;31.40;23.10;;;0.40;99.90;;;;;;5131997;27;20486;-64
2022/01/14 08:34:15;;;;;;;30.60;24.27;;;0.50;99.90;;;;;;5133157;27;20451;-64
2022/01/14 08:36:42;;;;;;;32.20;23.93;;;0.60;99.90;;;;;;5133295;27;20440;-64
2022/01/14 08:39:09;;;;;;;32.90;25.73;;;0.80;99.90;;;;;;5133237;27;20961;-63
2022/01/14 08:41:36;;;;;;;34.83;24.57;;;0.90;99.90;;;;;;5133020;27;20468;-63
2022/01/14 08:44:03;;;;;;;31.50;23.80;;;1.00;99.90;;;;;;5132682;27;20441;-65
2022/01/14 08:46:29;;;;;;;32.60;25.03;;;1.10;99.90;;;;;;5132051;27;20535;-64
2022/01/14 08:48:59;;;;;;;34.73;24.53;;;1.30;99.90;;;;;;5131774;27;20469;-64
2022/01/14 08:51:28;;;;;;;32.17;23.10;;;1.40;99.90;;;;;;5131815;27;20469;-64
2022/01/14 08:53:55;;;;;;;33.70;22.97;;;1.50;99.90;;;;;;5131558;27;20950;-64
2022/01/14 08:56:22;;;;;;;36.30;23.17;;;1.60;99.90;;;;;;5131617;27;20444;-64
2022/01/14 08:58:49;;;;;;;34.13;22.00;;;1.60;99.90;;;;;;5131778;27;20881;-65
2022/01/14 09:01:16;;;;;;;28.83;22.30;;;1.70;99.90;;;;;;5131455;27;20460;-64
2022/01/14 09:03:43;;;;;;;32.10;22.00;;;1.80;99.90;;;;;;5132266;27;20455;-65
2022/01/14 09:06:09;;;;;;;28.63;21.17;;;1.80;99.90;;;;;;5131570;27;20456;-65
2022/01/14 09:08:37;;;;;;;27.83;21.77;;;1.90;99.90;;;;;;5131625;27;20892;-64
2022/01/14 09:11:06;;;;;;;28.90;22.00;;;1.90;99.90;;;;;;5131066;27;20841;-64
2022/01/14 09:13:33;;;;;;;25.90;20.47;;;2.00;99.90;;;;;;5131737;27;20869;-62
2022/01/14 09:15:59;;;;;;;31.00;21.30;;;2.10;99.90;;;;;;5131312;27;20531;-64
2022/01/14 09:18:26;;;;;;;26.80;22.27;;;2.20;99.90;;;;;;5131391;27;20952;-65
2022/01/14 09:20:53;;;;;;;34.27;23.77;;;2.40;99.90;;;;;;5130921;27;20468;-63
2022/01/14 09:23:24;;;;;;;28.57;21.27;;;2.50;99.90;;;;;;5130976;27;20973;-64
2022/01/14 09:25:53;;;;;;;32.20;22.23;;;2.70;99.90;;;;;;5131272;27;20436;-64
2022/01/14 09:28:20;;;;;;;30.50;21.83;;;2.80;99.90;;;;;;5131123;27;20451;-64
2022/01/14 09:30:47;;;;;;;28.97;22.23;;;3.00;99.90;;;;;;5130725;27;20900;-64
2022/01/14 09:33:17;;;;;;;31.43;20.90;;;3.10;99.90;;;;;;5131114;27;20444;-64
2022/01/14 09:35:44;;;;;;;26.97;20.07;;;3.30;99.90;;;;;;5130880;27;20457;-64
2022/01/14 09:38:12;;;;;;;26.20;20.10;;;3.50;99.90;;;;;;5131302;27;20436;-65
2022/01/14 09:40:43;;;;;;;23.97;17.43;;;3.80;99.90;;;;;;5130651;27;21171;-65
2022/01/14 09:43:13;;;;;;;20.70;18.40;;;3.90;99.90;;;;;;5131176;27;20451;-64
2022/01/14 09:45:40;;;;;;;24.03;20.13;;;3.90;99.90;;;;;;5131616;27;20451;-62
2022/01/14 09:48:07;;;;;;;24.07;18.03;;;4.00;99.90;;;;;;5131940;27;20443;-64
2022/01/14 09:50:34;;;;;;;25.10;18.33;;;4.00;99.90;;;;;;5133214;27;20583;-64
2022/01/14 09:53:01;;;;;;;21.60;17.70;;;4.00;99.90;;;;;;5132208;27;21200;-65
2022/01/14 09:55:28;;;;;;;21.97;17.73;;;4.00;99.90;;;;;;5130348;27;20444;-64
2022/01/14 09:57:57;;;;;;;20.20;17.47;;;3.90;99.90;;;;;;5130400;27;20547;-64
2022/01/14 10:00:25;;;;;;;24.33;18.47;;;3.90;99.90;;;;;;5129968;27;20936;-64
2022/01/14 10:02:52;;;;;;;21.80;17.23;;;3.80;99.90;;;;;;5130166;27;20536;-64
2022/01/14 10:05:33;;;;;;;24.10;19.00;;;4.00;99.90;;;;;;5130411;27;20476;-65
2022/01/14 10:08:13;;;;;;;20.93;16.33;;;4.20;99.90;;;;;;5130083;27;20461;-62
2022/01/14 10:10:46;;;;;;;21.83;16.97;;;4.10;99.90;;;;;;5129549;27;20492;-64
2022/01/14 10:13:15;;;;;;;27.87;18.80;;;4.20;99.90;;;;;;5130154;27;20441;-64
2022/01/14 10:15:45;;;;;;;22.30;17.33;;;4.30;99.90;;;;;;5130352;27;20470;-64
2022/01/14 10:18:17;;;;;;;21.00;17.23;;;4.40;99.90;;;;;;5130229;27;20447;-64
2022/01/14 10:20:44;;;;;;;22.83;17.73;;;4.40;99.90;;;;;;5129749;27;20467;-64
2022/01/14 10:23:13;;;;;;;23.87;19.70;;;4.50;99.90;;;;;;5130085;27;20471;-64
2022/01/14 10:25:41;;;;;;;20.87;17.73;;;4.60;99.90;;;;;;5130016;27;20441;-64
2022/01/14 10:28:18;;;;;;;21.07;17.00;;;4.90;99.90;;;;;;5130110;27;20441;-64
2022/01/14 10:30:49;;;;;;;21.60;17.60;;;5.40;99.90;;;;;;5129527;27;20957;-65
2022/01/14 10:33:21;;;;;;;21.50;16.23;;;6.10;99.90;;;;;;5129979;28;20445;-64
2022/01/14 10:35:49;;;;;;;17.03;14.73;;;7.00;99.90;;;;;;5130110;28;20448;-65
2022/01/14 10:38:18;;;;;;;18.47;16.03;;;7.90;99.90;;;;;;5129712;27;20964;-64
2022/01/14 10:40:47;;;;;;;19.30;16.33;;;8.70;99.90;;;;;;5129477;27;20533;-65
2022/01/14 10:43:16;;;;;;;18.17;16.07;;;9.50;99.90;;;;;;5129976;28;20451;-64
2022/01/14 10:45:44;;;;;;;16.83;14.60;;;10.30;99.90;;;;;;5129746;28;20444;-65
2022/01/14 10:48:14;;;;;;;17.57;15.57;;;10.60;99.90;;;;;;5129862;28;20448;-65
2022/01/14 10:50:44;;;;;;;18.50;15.13;;;11.00;99.90;;;;;;5129282;28;20485;-65
2022/01/14 10:53:14;;;;;;;18.63;15.40;;;11.50;99.90;;;;;;5129758;27;20444;-64
2022/01/14 10:55:44;;;;;;;24.50;16.23;;;11.80;99.90;;;;;;5134107;27;20440;-65
2022/01/14 10:58:15;;;;;;;18.37;16.50;;;12.20;99.20;;;;;;5134023;27;20452;-65
2022/01/14 11:00:44;;;;;;;20.10;17.30;;;12.20;98.00;;;;;;5133454;27;21207;-65
2022/01/14 11:03:12;;;;;;;18.33;16.30;;;11.60;98.10;;;;;;5133925;27;20444;-65
2022/01/14 11:05:39;;;;;;;20.13;16.80;;;10.70;99.30;;;;;;5133987;27;20455;-64
2022/01/14 11:08:07;;;;;;;20.30;18.20;;;9.90;99.90;;;;;;5133467;27;20456;-65
2022/01/14 11:10:36;;;;;;;20.93;18.30;;;9.10;99.90;;;;;;5133256;27;20583;-65
2022/01/14 11:13:06;;;;;;;20.47;16.93;;;8.20;99.90;;;;;;5133801;27;20444;-65
2022/01/14 11:15:33;;;;;;;18.87;16.77;;;7.80;99.90;;;;;;5133488;27;20456;-64
2022/01/14 11:18:05;;;;;;;19.40;15.97;;;7.20;99.90;;;;;;5133477;27;20462;-65
2022/01/14 11:23:14;;;;;;;17.50;14.57;;;6.70;99.90;;;;;;5133474;27;20551;-64
2022/01/14 11:23:21;;;;;;;15.63;13.20;;;6.40;99.90;;;;;;5133389;27;20428;-64
2022/01/14 11:25:55;;;;;;;16.27;14.13;;;6.20;99.90;;;;;;5133514;27;20440;-64
2022/01/14 11:28:30;;;;;;;15.47;13.60;;;6.10;99.90;;;;;;5133565;27;20441;-64
2022/01/14 11:30:57;;;;;;;18.10;14.47;;;6.00;99.90;;;;;;5132861;27;21014;-64
2022/01/14 11:33:40;;;;;;;17.97;13.83;;;5.80;99.90;;;;;;5133521;27;20463;-65
2022/01/14 11:36:09;;;;;;;16.60;14.87;;;5.80;99.90;;;;;;5133492;27;20451;-65
2022/01/14 11:38:42;;;;;;;15.90;13.80;;;5.90;99.90;;;;;;5133167;27;21021;-65
2022/01/14 11:41:12;;;;;;;17.00;13.73;;;5.80;99.90;;;;;;5133163;27;20461;-65
2022/01/14 11:43:49;;;;;;;17.13;14.93;;;5.70;99.90;;;;;;5133391;27;20445;-65
2022/01/14 11:46:39;;;;;;;16.00;13.57;;;5.70;99.90;;;;;;5133120;27;20487;-64
2022/01/14 11:49:32;;;;;;;15.23;13.33;;;5.80;99.90;;;;;;5132845;27;20551;-64
2022/01/14 11:52:02;;;;;;;16.20;13.60;;;5.80;99.90;;;;;;5133121;27;20876;-65
2022/01/14 11:54:43;;;;;;;17.80;14.57;;;5.90;99.90;;;;;;5133170;27;20547;-65
2022/01/14 11:57:11;;;;;;;20.03;15.40;;;5.90;99.90;;;;;;5133217;27;20556;-65
2022/01/14 11:59:46;;;;;;;19.80;15.37;;;5.90;99.90;;;;;;5132755;27;20525;-65
2022/01/14 12:02:38;;;;;;;18.37;15.40;;;5.90;99.90;;;;;;5133288;27;20820;-65
2022/01/14 12:05:15;;;;;;;19.00;15.53;;;5.90;99.90;;;;;;5132116;27;20513;-64
2022/01/14 12:08:22;;;;;;;20.97;15.37;;;5.80;99.90;;;;;;5132796;27;20452;-65
2022/01/14 12:10:56;;;;;;;16.50;14.00;;;5.80;99.90;;;;;;5132474;27;20484;-65
2022/01/14 12:13:36;;;;;;;19.73;13.90;;;5.90;99.90;;;;;;5132868;27;20539;-65
2022/01/14 12:16:05;;;;;;;18.13;14.90;;;5.90;99.90;;;;;;5132690;27;20467;-65
2022/01/14 12:19:11;;;;;;;18.37;15.10;;;6.00;99.90;;;;;;5132745;27;20444;-67
2022/01/14 12:21:59;;;;;;;15.70;14.00;;;6.10;99.90;;;;;;5132778;27;20461;-63
2022/01/14 12:24:33;;;;;;;19.00;14.80;;;6.10;99.90;;;;;;5132673;27;20455;-65
2022/01/14 12:27:41;;;;;;;21.93;16.37;;;6.20;99.90;;;;;;5132584;27;20440;-65
2022/01/14 12:30:24;;;;;;;18.27;14.87;;;6.30;99.90;;;;;;5100588;27;20493;-65
2022/01/14 12:32:54;;;;;;;22.47;15.40;;;6.30;99.90;;;;;;5132135;27;20449;-65
2022/01/14 12:35:27;;;;;;;18.90;14.63;;;6.40;99.90;;;;;;5132322;27;21002;-64
2022/01/14 12:37:56;;;;;;;19.67;14.90;;;6.40;99.90;;;;;;5132187;27;20497;-65
2022/01/14 12:40:25;;;;;;;17.03;14.50;;;6.50;99.90;;;;;;5131485;27;21141;-65
2022/01/14 12:42:56;;;;;;;17.37;14.80;;;6.60;99.90;;;;;;5132026;27;20440;-65
2022/01/14 12:45:30;;;;;;;17.93;16.03;;;6.60;99.90;;;;;;5131843;27;20449;-65
2022/01/14 12:48:33;;;;;;;16.50;14.17;;;6.60;99.90;;;;;;5130436;27;20538;-66
2022/01/14 12:51:11;;;;;;;18.80;16.40;;;6.60;99.90;;;;;;5114516;27;20902;-65
2022/01/14 12:53:50;;;;;;;16.13;14.40;;;6.50;99.90;;;;;;5130951;27;20444;-67
2022/01/14 12:56:19;;;;;;;23.57;16.10;;;6.50;99.90;;;;;;5131622;27;20971;-65
2022/01/14 12:59:05;;;;;;;18.70;15.73;;;6.50;99.90;;;;;;5128469;27;20588;-64